sensor_id;sensor_type;location;lat;lon;timestamp;temperature;humidity
26212;DHT22;13951;49.516;6.094;2023-02-21T00:02:43;5.10;99.90
26212;DHT22;13951;49.516;6.094;2023-02-21T00:05:35;5.00;99.90
26212;DHT22;13951;49.516;6.094;2023-02-21T00:08:26;5.00;99.90
26212;DHT22;13951;49.516;6.094;2023-02-21T00:11:17;4.90;99.90
26212;DHT22;13951;49.516;6.094;2023-02-21T00:14:08;4.90;99.90
26212;DHT22;13951;49.516;6.094;2023-02-21T00:17:00;4.90;99.90
26212;DHT22;13951;49.516;6.094;2023-02-21T00:19:51;4.90;99.90
26212;DHT22;13951;49.516;6.094;2023-02-21T00:22:44;4.90;99.90
26212;DHT22;13951;49.516;6.094;2023-02-21T00:25:35;4.80;99.90
26212;DHT22;13951;49.516;6.094;2023-02-21T00:28:26;4.80;99.90
26212;DHT22;13951;49.516;6.094;2023-02-21T00:31:18;4.80;99.90
26212;DHT22;13951;49.516;6.094;2023-02-21T00:34:10;4.80;99.90
26212;DHT22;13951;49.516;6.094;2023-02-21T00:37:01;4.80;99.90
26212;DHT22;13951;49.516;6.094;2023-02-21T00:39:52;4.80;99.90
26212;DHT22;13951;49.516;6.094;2023-02-21T00:42:43;4.80;99.90
26212;DHT22;13951;49.516;6.094;2023-02-21T00:45:35;4.70;99.90
26212;DHT22;13951;49.516;6.094;2023-02-21T00:48:26;4.60;99.90
26212;DHT22;13951;49.516;6.094;2023-02-21T00:51:18;4.50;99.90
26212;DHT22;13951;49.516;6.094;2023-02-21T00:54:09;4.40;99.90
26212;DHT22;13951;49.516;6.094;2023-02-21T00:57:00;4.30;99.90
26212;DHT22;13951;49.516;6.094;2023-02-21T00:59:51;4.30;99.90
26212;DHT22;13951;49.516;6.094;2023-02-21T01:02:43;4.30;99.90
26212;DHT22;13951;49.516;6.094;2023-02-21T01:05:35;4.20;99.90
26212;DHT22;13951;49.516;6.094;2023-02-21T01:08:27;4.10;99.90
26212;DHT22;13951;49.516;6.094;2023-02-21T01:11:20;4.10;99.90
26212;DHT22;13951;49.516;6.094;2023-02-21T01:14:12;4.20;99.90
26212;DHT22;13951;49.516;6.094;2023-02-21T01:17:04;4.20;99.90
26212;DHT22;13951;49.516;6.094;2023-02-21T01:19:55;4.20;99.90
26212;DHT22;13951;49.516;6.094;2023-02-21T01:22:47;4.10;99.90
26212;DHT22;13951;49.516;6.094;2023-02-21T01:25:38;4.00;99.90
26212;DHT22;13951;49.516;6.094;2023-02-21T01:28:32;4.00;99.90
26212;DHT22;13951;49.516;6.094;2023-02-21T01:31:23;4.00;99.90
26212;DHT22;13951;49.516;6.094;2023-02-21T01:34:14;3.90;99.90
26212;DHT22;13951;49.516;6.094;2023-02-21T01:37:08;4.00;99.90
26212;DHT22;13951;49.516;6.094;2023-02-21T01:39:59;4.00;99.90
26212;DHT22;13951;49.516;6.094;2023-02-21T01:42:50;4.00;99.90
26212;DHT22;13951;49.516;6.094;2023-02-21T01:45:46;4.00;99.90
26212;DHT22;13951;49.516;6.094;2023-02-21T01:48:38;4.00;99.90
26212;DHT22;13951;49.516;6.094;2023-02-21T01:51:34;4.00;99.90
26212;DHT22;13951;49.516;6.094;2023-02-21T01:54:29;4.00;99.90
26212;DHT22;13951;49.516;6.094;2023-02-21T01:57:21;3.90;99.90
26212;DHT22;13951;49.516;6.094;2023-02-21T02:00:14;3.90;99.90
26212;DHT22;13951;49.516;6.094;2023-02-21T02:03:08;3.80;99.90
26212;DHT22;13951;49.516;6.094;2023-02-21T02:06:03;3.80;99.90
26212;DHT22;13951;49.516;6.094;2023-02-21T02:08:54;3.80;99.90
26212;DHT22;13951;49.516;6.094;2023-02-21T02:35:28;3.40;99.90
26212;DHT22;13951;49.516;6.094;2023-02-21T02:38:11;3.40;99.90
26212;DHT22;13951;49.516;6.094;2023-02-21T02:41:05;3.40;99.90
26212;DHT22;13951;49.516;6.094;2023-02-21T02:44:12;3.50;99.90
26212;DHT22;13951;49.516;6.094;2023-02-21T02:46:48;3.40;99.90
26212;DHT22;13951;49.516;6.094;2023-02-21T02:49:27;3.50;99.90
26212;DHT22;13951;49.516;6.094;2023-02-21T02:52:05;3.50;99.90
26212;DHT22;13951;49.516;6.094;2023-02-21T02:54:39;3.40;99.90
26212;DHT22;13951;49.516;6.094;2023-02-21T02:57:13;3.40;99.90
26212;DHT22;13951;49.516;6.094;2023-02-21T02:59:46;3.40;99.90
26212;DHT22;13951;49.516;6.094;2023-02-21T03:08:16;3.30;99.90
26212;DHT22;13951;49.516;6.094;2023-02-21T03:11:00;3.20;99.90
26212;DHT22;13951;49.516;6.094;2023-02-21T03:16:22;2.90;99.90
26212;DHT22;13951;49.516;6.094;2023-02-21T03:19:25;2.90;99.90
26212;DHT22;13951;49.516;6.094;2023-02-21T03:22:07;2.90;99.90
26212;DHT22;13951;49.516;6.094;2023-02-21T03:24:44;2.90;99.90
26212;DHT22;13951;49.516;6.094;2023-02-21T03:27:19;2.80;99.90
26212;DHT22;13951;49.516;6.094;2023-02-21T03:30:07;2.90;99.90
26212;DHT22;13951;49.516;6.094;2023-02-21T03:32:46;2.90;99.90
26212;DHT22;13951;49.516;6.094;2023-02-21T03:35:21;2.90;99.90
26212;DHT22;13951;49.516;6.094;2023-02-21T03:37:55;2.90;99.90
26212;DHT22;13951;49.516;6.094;2023-02-21T03:40:32;2.90;99.90
26212;DHT22;13951;49.516;6.094;2023-02-21T03:43:07;2.80;99.90
26212;DHT22;13951;49.516;6.094;2023-02-21T03:45:49;2.80;99.90
26212;DHT22;13951;49.516;6.094;2023-02-21T03:48:23;2.90;99.90
26212;DHT22;13951;49.516;6.094;2023-02-21T03:51:15;2.90;99.90
26212;DHT22;13951;49.516;6.094;2023-02-21T03:53:48;3.00;99.90
26212;DHT22;13951;49.516;6.094;2023-02-21T03:56:24;3.00;99.90
26212;DHT22;13951;49.516;6.094;2023-02-21T03:59:31;3.00;99.90
26212;DHT22;13951;49.516;6.094;2023-02-21T04:02:04;2.90;99.90
26212;DHT22;13951;49.516;6.094;2023-02-21T04:04:39;2.90;99.90
26212;DHT22;13951;49.516;6.094;2023-02-21T04:07:16;2.90;99.90
26212;DHT22;13951;49.516;6.094;2023-02-21T04:09:49;2.80;99.90
26212;DHT22;13951;49.516;6.094;2023-02-21T04:12:34;2.70;99.90
26212;DHT22;13951;49.516;6.094;2023-02-21T04:15:08;2.70;99.90
26212;DHT22;13951;49.516;6.094;2023-02-21T04:17:42;2.70;99.90
26212;DHT22;13951;49.516;6.094;2023-02-21T04:20:15;2.60;99.90
26212;DHT22;13951;49.516;6.094;2023-02-21T04:22:54;2.60;99.90
26212;DHT22;13951;49.516;6.094;2023-02-21T04:25:35;2.70;99.90
26212;DHT22;13951;49.516;6.094;2023-02-21T04:28:14;2.60;99.90
26212;DHT22;13951;49.516;6.094;2023-02-21T04:30:48;2.60;99.90
26212;DHT22;13951;49.516;6.094;2023-02-21T04:33:21;2.70;99.90
26212;DHT22;13951;49.516;6.094;2023-02-21T04:35:54;2.60;99.90
26212;DHT22;13951;49.516;6.094;2023-02-21T04:38:36;2.50;99.90
26212;DHT22;13951;49.516;6.094;2023-02-21T04:41:11;2.50;99.90
26212;DHT22;13951;49.516;6.094;2023-02-21T04:43:45;2.60;99.90
26212;DHT22;13951;49.516;6.094;2023-02-21T04:46:18;2.50;99.90
26212;DHT22;13951;49.516;6.094;2023-02-21T04:48:51;2.50;99.90
26212;DHT22;13951;49.516;6.094;2023-02-21T04:51:25;2.40;99.90
26212;DHT22;13951;49.516;6.094;2023-02-21T04:53:58;2.50;99.90
26212;DHT22;13951;49.516;6.094;2023-02-21T04:56:31;2.40;99.90
26212;DHT22;13951;49.516;6.094;2023-02-21T04:59:04;2.40;99.90
26212;DHT22;13951;49.516;6.094;2023-02-21T05:01:37;2.40;99.90
26212;DHT22;13951;49.516;6.094;2023-02-21T05:04:09;2.50;99.90
26212;DHT22;13951;49.516;6.094;2023-02-21T05:06:42;2.50;99.90
26212;DHT22;13951;49.516;6.094;2023-02-21T05:09:15;2.50;99.90
26212;DHT22;13951;49.516;6.094;2023-02-21T05:11:47;2.50;99.90
26212;DHT22;13951;49.516;6.094;2023-02-21T05:14:20;2.50;99.90
26212;DHT22;13951;49.516;6.094;2023-02-21T05:16:53;2.40;99.90
26212;DHT22;13951;49.516;6.094;2023-02-21T05:19:26;2.40;99.90
26212;DHT22;13951;49.516;6.094;2023-02-21T05:22:01;2.40;99.90
26212;DHT22;13951;49.516;6.094;2023-02-21T05:24:34;2.40;99.90
26212;DHT22;13951;49.516;6.094;2023-02-21T05:27:15;2.50;99.90
26212;DHT22;13951;49.516;6.094;2023-02-21T05:29:50;2.50;99.90
26212;DHT22;13951;49.516;6.094;2023-02-21T05:32:22;2.50;99.90
26212;DHT22;13951;49.516;6.094;2023-02-21T05:34:55;2.50;99.90
26212;DHT22;13951;49.516;6.094;2023-02-21T05:37:28;2.40;99.90
26212;DHT22;13951;49.516;6.094;2023-02-21T05:40:03;2.40;99.90
26212;DHT22;13951;49.516;6.094;2023-02-21T05:42:37;2.40;99.90
26212;DHT22;13951;49.516;6.094;2023-02-21T05:45:10;2.40;99.90
26212;DHT22;13951;49.516;6.094;2023-02-21T05:47:43;2.40;99.90
26212;DHT22;13951;49.516;6.094;2023-02-21T05:50:16;2.30;99.90
26212;DHT22;13951;49.516;6.094;2023-02-21T05:52:48;2.30;99.90
26212;DHT22;13951;49.516;6.094;2023-02-21T05:55:21;2.20;99.90
26212;DHT22;13951;49.516;6.094;2023-02-21T05:57:54;2.20;99.90
26212;DHT22;13951;49.516;6.094;2023-02-21T06:00:29;2.10;99.90
26212;DHT22;13951;49.516;6.094;2023-02-21T06:03:01;2.10;99.90
26212;DHT22;13951;49.516;6.094;2023-02-21T06:05:36;2.00;99.90
26212;DHT22;13951;49.516;6.094;2023-02-21T06:08:09;2.10;99.90
26212;DHT22;13951;49.516;6.094;2023-02-21T06:10:45;2.10;99.90
26212;DHT22;13951;49.516;6.094;2023-02-21T06:13:20;2.10;99.90
26212;DHT22;13951;49.516;6.094;2023-02-21T06:15:54;2.10;99.90
26212;DHT22;13951;49.516;6.094;2023-02-21T06:18:26;2.10;99.90
26212;DHT22;13951;49.516;6.094;2023-02-21T06:20:59;2.00;99.90
26212;DHT22;13951;49.516;6.094;2023-02-21T06:23:32;2.00;99.90
26212;DHT22;13951;49.516;6.094;2023-02-21T06:26:05;2.00;99.90
26212;DHT22;13951;49.516;6.094;2023-02-21T06:28:37;2.10;99.90
26212;DHT22;13951;49.516;6.094;2023-02-21T06:31:10;2.10;99.90
26212;DHT22;13951;49.516;6.094;2023-02-21T06:33:43;2.20;99.90
26212;DHT22;13951;49.516;6.094;2023-02-21T06:36:22;2.10;99.90
26212;DHT22;13951;49.516;6.094;2023-02-21T06:38:56;2.20;99.90
26212;DHT22;13951;49.516;6.094;2023-02-21T06:41:30;2.10;99.90
26212;DHT22;13951;49.516;6.094;2023-02-21T06:44:03;2.10;99.90
26212;DHT22;13951;49.516;6.094;2023-02-21T06:46:36;2.20;99.90
26212;DHT22;13951;49.516;6.094;2023-02-21T06:49:09;2.20;99.90
26212;DHT22;13951;49.516;6.094;2023-02-21T06:51:42;2.20;99.90
26212;DHT22;13951;49.516;6.094;2023-02-21T06:54:15;2.20;99.90
26212;DHT22;13951;49.516;6.094;2023-02-21T06:56:48;2.20;99.90
26212;DHT22;13951;49.516;6.094;2023-02-21T06:59:21;2.20;99.90
26212;DHT22;13951;49.516;6.094;2023-02-21T07:01:55;2.20;99.90
26212;DHT22;13951;49.516;6.094;2023-02-21T07:04:27;2.20;99.90
26212;DHT22;13951;49.516;6.094;2023-02-21T07:07:03;2.20;99.90
26212;DHT22;13951;49.516;6.094;2023-02-21T07:09:36;2.30;99.90
26212;DHT22;13951;49.516;6.094;2023-02-21T07:12:10;2.20;99.90
26212;DHT22;13951;49.516;6.094;2023-02-21T07:14:43;2.20;99.90
26212;DHT22;13951;49.516;6.094;2023-02-21T07:17:15;2.30;99.90
26212;DHT22;13951;49.516;6.094;2023-02-21T07:19:48;2.20;99.90
26212;DHT22;13951;49.516;6.094;2023-02-21T07:22:21;2.30;99.90
26212;DHT22;13951;49.516;6.094;2023-02-21T07:24:57;2.20;99.90
26212;DHT22;13951;49.516;6.094;2023-02-21T07:27:30;2.30;99.90
26212;DHT22;13951;49.516;6.094;2023-02-21T07:30:03;2.30;99.90
26212;DHT22;13951;49.516;6.094;2023-02-21T07:32:37;2.20;99.90
26212;DHT22;13951;49.516;6.094;2023-02-21T07:35:10;2.20;99.90
26212;DHT22;13951;49.516;6.094;2023-02-21T07:37:42;2.20;99.90
26212;DHT22;13951;49.516;6.094;2023-02-21T07:40:15;2.20;99.90
26212;DHT22;13951;49.516;6.094;2023-02-21T07:42:48;2.30;99.90
26212;DHT22;13951;49.516;6.094;2023-02-21T07:45:22;2.30;99.90
26212;DHT22;13951;49.516;6.094;2023-02-21T07:47:55;2.30;99.90
26212;DHT22;13951;49.516;6.094;2023-02-21T07:50:28;2.40;99.90
26212;DHT22;13951;49.516;6.094;2023-02-21T07:53:01;2.50;99.90
26212;DHT22;13951;49.516;6.094;2023-02-21T07:55:34;2.60;99.90
26212;DHT22;13951;49.516;6.094;2023-02-21T07:58:07;2.60;99.90
26212;DHT22;13951;49.516;6.094;2023-02-21T08:00:40;2.70;99.90
26212;DHT22;13951;49.516;6.094;2023-02-21T08:03:13;2.80;99.90
26212;DHT22;13951;49.516;6.094;2023-02-21T08:05:45;2.80;99.90
26212;DHT22;13951;49.516;6.094;2023-02-21T08:08:18;2.90;99.90
26212;DHT22;13951;49.516;6.094;2023-02-21T08:10:51;3.00;99.90
26212;DHT22;13951;49.516;6.094;2023-02-21T08:13:24;3.00;99.90
26212;DHT22;13951;49.516;6.094;2023-02-21T08:15:56;3.10;99.90
26212;DHT22;13951;49.516;6.094;2023-02-21T08:18:29;3.20;99.90
26212;DHT22;13951;49.516;6.094;2023-02-21T08:21:02;3.30;99.90
26212;DHT22;13951;49.516;6.094;2023-02-21T08:23:35;3.30;99.90
26212;DHT22;13951;49.516;6.094;2023-02-21T08:26:08;3.40;99.90
26212;DHT22;13951;49.516;6.094;2023-02-21T08:28:41;3.50;99.90
26212;DHT22;13951;49.516;6.094;2023-02-21T08:31:13;3.60;99.90
26212;DHT22;13951;49.516;6.094;2023-02-21T08:33:47;3.60;99.90
26212;DHT22;13951;49.516;6.094;2023-02-21T08:36:19;3.70;99.90
26212;DHT22;13951;49.516;6.094;2023-02-21T08:38:52;3.80;99.90
26212;DHT22;13951;49.516;6.094;2023-02-21T08:41:33;3.90;99.90
26212;DHT22;13951;49.516;6.094;2023-02-21T08:44:07;4.00;99.90
26212;DHT22;13951;49.516;6.094;2023-02-21T08:46:41;4.20;99.90
26212;DHT22;13951;49.516;6.094;2023-02-21T08:49:14;4.30;99.90
26212;DHT22;13951;49.516;6.094;2023-02-21T08:51:47;4.40;99.90
26212;DHT22;13951;49.516;6.094;2023-02-21T08:54:19;4.50;99.90
26212;DHT22;13951;49.516;6.094;2023-02-21T08:56:52;4.60;99.90
26212;DHT22;13951;49.516;6.094;2023-02-21T08:59:26;4.70;99.90
26212;DHT22;13951;49.516;6.094;2023-02-21T09:02:05;4.80;99.90
26212;DHT22;13951;49.516;6.094;2023-02-21T09:04:46;4.90;99.90
26212;DHT22;13951;49.516;6.094;2023-02-21T09:07:20;5.00;99.90
26212;DHT22;13951;49.516;6.094;2023-02-21T09:09:53;5.10;99.90
26212;DHT22;13951;49.516;6.094;2023-02-21T09:12:26;5.30;99.90
26212;DHT22;13951;49.516;6.094;2023-02-21T09:14:58;5.30;99.90
26212;DHT22;13951;49.516;6.094;2023-02-21T09:17:31;5.50;99.90
26212;DHT22;13951;49.516;6.094;2023-02-21T09:20:09;5.60;99.90
26212;DHT22;13951;49.516;6.094;2023-02-21T09:22:43;5.70;99.90
26212;DHT22;13951;49.516;6.094;2023-02-21T09:25:21;5.90;99.90
26212;DHT22;13951;49.516;6.094;2023-02-21T09:27:55;6.00;99.90
26212;DHT22;13951;49.516;6.094;2023-02-21T09:30:30;6.10;99.90
26212;DHT22;13951;49.516;6.094;2023-02-21T09:33:03;6.20;99.90
26212;DHT22;13951;49.516;6.094;2023-02-21T09:35:36;6.40;99.90
26212;DHT22;13951;49.516;6.094;2023-02-21T09:38:09;6.50;99.90
26212;DHT22;13951;49.516;6.094;2023-02-21T09:40:47;6.60;99.90
26212;DHT22;13951;49.516;6.094;2023-02-21T09:43:30;6.80;99.90
26212;DHT22;13951;49.516;6.094;2023-02-21T09:46:13;7.00;99.90
26212;DHT22;13951;49.516;6.094;2023-02-21T09:48:48;7.20;99.90
26212;DHT22;13951;49.516;6.094;2023-02-21T09:51:22;7.30;99.90
26212;DHT22;13951;49.516;6.094;2023-02-21T09:53:57;7.50;99.90
26212;DHT22;13951;49.516;6.094;2023-02-21T09:56:37;7.70;99.90
26212;DHT22;13951;49.516;6.094;2023-02-21T09:59:11;7.80;99.90
26212;DHT22;13951;49.516;6.094;2023-02-21T10:10:30;8.20;99.90
26212;DHT22;13951;49.516;6.094;2023-02-21T10:13:34;8.30;99.90
26212;DHT22;13951;49.516;6.094;2023-02-21T10:21:40;8.50;99.90
26212;DHT22;13951;49.516;6.094;2023-02-21T10:24:16;8.60;99.90
26212;DHT22;13951;49.516;6.094;2023-02-21T10:27:04;8.70;99.90
26212;DHT22;13951;49.516;6.094;2023-02-21T10:32:13;8.90;99.90
26212;DHT22;13951;49.516;6.094;2023-02-21T10:34:47;9.10;99.90
26212;DHT22;13951;49.516;6.094;2023-02-21T10:37:50;9.10;99.90
26212;DHT22;13951;49.516;6.094;2023-02-21T10:46:30;9.60;99.90
26212;DHT22;13951;49.516;6.094;2023-02-21T10:49:22;9.80;99.90
26212;DHT22;13951;49.516;6.094;2023-02-21T10:52:13;9.90;99.90
26212;DHT22;13951;49.516;6.094;2023-02-21T10:55:04;10.00;99.90
26212;DHT22;13951;49.516;6.094;2023-02-21T10:57:42;10.20;99.90
26212;DHT22;13951;49.516;6.094;2023-02-21T11:00:37;10.60;99.90
26212;DHT22;13951;49.516;6.094;2023-02-21T11:05:54;11.40;99.90
26212;DHT22;13951;49.516;6.094;2023-02-21T11:08:40;11.70;99.90
26212;DHT22;13951;49.516;6.094;2023-02-21T11:11:13;11.90;99.90
26212;DHT22;13951;49.516;6.094;2023-02-21T11:13:46;12.20;99.90
26212;DHT22;13951;49.516;6.094;2023-02-21T11:16:19;12.40;99.90
26212;DHT22;13951;49.516;6.094;2023-02-21T11:19:04;12.70;99.90
26212;DHT22;13951;49.516;6.094;2023-02-21T11:21:37;13.00;99.90
26212;DHT22;13951;49.516;6.094;2023-02-21T11:24:11;13.10;99.90
26212;DHT22;13951;49.516;6.094;2023-02-21T11:29:23;14.00;99.90
26212;DHT22;13951;49.516;6.094;2023-02-21T11:32:11;14.10;99.90
26212;DHT22;13951;49.516;6.094;2023-02-21T11:34:45;14.50;99.90
26212;DHT22;13951;49.516;6.094;2023-02-21T11:39:53;15.10;99.90
26212;DHT22;13951;49.516;6.094;2023-02-21T11:42:33;15.40;99.90
26212;DHT22;13951;49.516;6.094;2023-02-21T11:45:13;16.10;99.90
26212;DHT22;13951;49.516;6.094;2023-02-21T11:48:00;16.30;99.90
26212;DHT22;13951;49.516;6.094;2023-02-21T11:50:38;17.30;99.90
26212;DHT22;13951;49.516;6.094;2023-02-21T14:18:55;24.30;61.80
26212;DHT22;13951;49.516;6.094;2023-02-21T15:37:24;14.00;99.90
26212;DHT22;13951;49.516;6.094;2023-02-21T15:40:01;13.10;99.90
26212;DHT22;13951;49.516;6.094;2023-02-21T15:42:39;13.00;99.90
26212;DHT22;13951;49.516;6.094;2023-02-21T15:45:18;13.00;99.90
26212;DHT22;13951;49.516;6.094;2023-02-21T15:47:53;13.00;99.90
26212;DHT22;13951;49.516;6.094;2023-02-21T15:53:14;13.00;99.90
26212;DHT22;13951;49.516;6.094;2023-02-21T15:55:48;12.90;99.90
26212;DHT22;13951;49.516;6.094;2023-02-21T15:58:23;12.90;99.90
26212;DHT22;13951;49.516;6.094;2023-02-21T16:01:05;12.80;99.90
26212;DHT22;13951;49.516;6.094;2023-02-21T16:03:44;12.80;99.90
26212;DHT22;13951;49.516;6.094;2023-02-21T16:06:28;12.80;99.90
26212;DHT22;13951;49.516;6.094;2023-02-21T16:11:40;12.80;99.90
26212;DHT22;13951;49.516;6.094;2023-02-21T16:14:24;12.80;99.90
26212;DHT22;13951;49.516;6.094;2023-02-21T16:19:43;12.70;99.90
26212;DHT22;13951;49.516;6.094;2023-02-21T16:22:36;12.70;99.90
26212;DHT22;13951;49.516;6.094;2023-02-21T16:25:29;12.70;99.90
26212;DHT22;13951;49.516;6.094;2023-02-21T16:28:11;12.60;99.90
26212;DHT22;13951;49.516;6.094;2023-02-21T16:30:44;12.60;99.90
26212;DHT22;13951;49.516;6.094;2023-02-21T16:33:17;12.60;99.90
26212;DHT22;13951;49.516;6.094;2023-02-21T16:35:50;12.50;99.90
26212;DHT22;13951;49.516;6.094;2023-02-21T16:38:24;12.40;99.90
26212;DHT22;13951;49.516;6.094;2023-02-21T16:40:57;12.40;99.90
26212;DHT22;13951;49.516;6.094;2023-02-21T16:43:30;12.40;99.90
26212;DHT22;13951;49.516;6.094;2023-02-21T16:46:03;12.30;99.90
26212;DHT22;13951;49.516;6.094;2023-02-21T16:48:36;12.20;99.90
26212;DHT22;13951;49.516;6.094;2023-02-21T16:51:11;12.10;99.90
26212;DHT22;13951;49.516;6.094;2023-02-21T16:53:48;12.10;99.90
26212;DHT22;13951;49.516;6.094;2023-02-21T16:56:21;12.10;99.90
26212;DHT22;13951;49.516;6.094;2023-02-21T16:58:54;12.00;99.90
26212;DHT22;13951;49.516;6.094;2023-02-21T17:01:30;11.90;99.90
26212;DHT22;13951;49.516;6.094;2023-02-21T17:04:13;11.80;99.90
26212;DHT22;13951;49.516;6.094;2023-02-21T17:06:52;11.60;99.90
26212;DHT22;13951;49.516;6.094;2023-02-21T17:09:27;11.50;99.90
26212;DHT22;13951;49.516;6.094;2023-02-21T17:12:01;11.40;99.90
26212;DHT22;13951;49.516;6.094;2023-02-21T17:14:33;11.30;99.90
26212;DHT22;13951;49.516;6.094;2023-02-21T17:17:06;11.20;99.90
26212;DHT22;13951;49.516;6.094;2023-02-21T17:19:39;11.10;99.90
26212;DHT22;13951;49.516;6.094;2023-02-21T17:22:11;11.00;99.90
26212;DHT22;13951;49.516;6.094;2023-02-21T17:24:44;10.90;99.90
26212;DHT22;13951;49.516;6.094;2023-02-21T17:27:17;10.80;99.90
26212;DHT22;13951;49.516;6.094;2023-02-21T17:29:50;10.70;99.90
26212;DHT22;13951;49.516;6.094;2023-02-21T17:32:22;10.60;99.90
26212;DHT22;13951;49.516;6.094;2023-02-21T17:34:55;10.50;99.90
26212;DHT22;13951;49.516;6.094;2023-02-21T17:37:28;10.40;99.90
26212;DHT22;13951;49.516;6.094;2023-02-21T17:40:02;10.30;99.90
26212;DHT22;13951;49.516;6.094;2023-02-21T17:42:35;10.10;99.90
26212;DHT22;13951;49.516;6.094;2023-02-21T17:45:09;10.00;99.90
26212;DHT22;13951;49.516;6.094;2023-02-21T17:47:42;9.90;99.90
26212;DHT22;13951;49.516;6.094;2023-02-21T17:50:16;9.80;99.90
26212;DHT22;13951;49.516;6.094;2023-02-21T17:52:49;9.60;99.90
26212;DHT22;13951;49.516;6.094;2023-02-21T17:55:24;9.50;99.90
26212;DHT22;13951;49.516;6.094;2023-02-21T17:57:57;9.30;99.90
26212;DHT22;13951;49.516;6.094;2023-02-21T18:00:30;9.20;99.90
26212;DHT22;13951;49.516;6.094;2023-02-21T18:03:06;9.10;99.90
26212;DHT22;13951;49.516;6.094;2023-02-21T18:05:40;9.00;99.90
26212;DHT22;13951;49.516;6.094;2023-02-21T18:08:15;8.90;99.90
26212;DHT22;13951;49.516;6.094;2023-02-21T18:10:48;8.80;99.90
26212;DHT22;13951;49.516;6.094;2023-02-21T18:13:21;8.70;99.90
26212;DHT22;13951;49.516;6.094;2023-02-21T18:15:54;8.60;99.90
26212;DHT22;13951;49.516;6.094;2023-02-21T18:18:27;8.50;99.90
26212;DHT22;13951;49.516;6.094;2023-02-21T18:21:00;8.40;99.90
26212;DHT22;13951;49.516;6.094;2023-02-21T18:23:34;8.40;99.90
26212;DHT22;13951;49.516;6.094;2023-02-21T18:26:07;8.30;99.90
26212;DHT22;13951;49.516;6.094;2023-02-21T18:28:40;8.20;99.90
26212;DHT22;13951;49.516;6.094;2023-02-21T18:31:17;8.10;99.90
26212;DHT22;13951;49.516;6.094;2023-02-21T18:33:50;8.10;99.90
26212;DHT22;13951;49.516;6.094;2023-02-21T18:36:23;8.00;99.90
26212;DHT22;13951;49.516;6.094;2023-02-21T18:38:56;8.00;99.90
26212;DHT22;13951;49.516;6.094;2023-02-21T18:41:32;7.90;99.90
26212;DHT22;13951;49.516;6.094;2023-02-21T18:44:04;7.90;99.90
26212;DHT22;13951;49.516;6.094;2023-02-21T18:46:37;7.80;99.90
26212;DHT22;13951;49.516;6.094;2023-02-21T18:49:12;7.70;99.90
26212;DHT22;13951;49.516;6.094;2023-02-21T18:51:47;7.70;99.90
26212;DHT22;13951;49.516;6.094;2023-02-21T18:54:20;7.60;99.90
26212;DHT22;13951;49.516;6.094;2023-02-21T18:56:53;7.50;99.90
26212;DHT22;13951;49.516;6.094;2023-02-21T18:59:26;7.50;99.90
26212;DHT22;13951;49.516;6.094;2023-02-21T19:01:59;7.40;99.90
26212;DHT22;13951;49.516;6.094;2023-02-21T19:04:32;7.30;99.90
26212;DHT22;13951;49.516;6.094;2023-02-21T19:07:10;7.30;99.90
26212;DHT22;13951;49.516;6.094;2023-02-21T19:09:46;7.20;99.90
26212;DHT22;13951;49.516;6.094;2023-02-21T19:12:19;7.10;99.90
26212;DHT22;13951;49.516;6.094;2023-02-21T19:14:51;7.10;99.90
26212;DHT22;13951;49.516;6.094;2023-02-21T19:17:24;7.10;99.90
26212;DHT22;13951;49.516;6.094;2023-02-21T19:19:57;7.10;99.90
26212;DHT22;13951;49.516;6.094;2023-02-21T19:22:30;7.10;99.90
26212;DHT22;13951;49.516;6.094;2023-02-21T19:25:04;7.00;99.90
26212;DHT22;13951;49.516;6.094;2023-02-21T19:27:37;7.00;99.90
26212;DHT22;13951;49.516;6.094;2023-02-21T19:30:12;6.90;99.90
26212;DHT22;13951;49.516;6.094;2023-02-21T19:32:45;6.90;99.90
26212;DHT22;13951;49.516;6.094;2023-02-21T19:35:17;6.80;99.90
26212;DHT22;13951;49.516;6.094;2023-02-21T19:37:54;6.70;99.90
26212;DHT22;13951;49.516;6.094;2023-02-21T19:40:28;6.70;99.90
26212;DHT22;13951;49.516;6.094;2023-02-21T19:43:02;6.60;99.90
26212;DHT22;13951;49.516;6.094;2023-02-21T19:45:35;6.60;99.90
26212;DHT22;13951;49.516;6.094;2023-02-21T19:48:07;6.50;99.90
26212;DHT22;13951;49.516;6.094;2023-02-21T19:50:40;6.50;99.90
26212;DHT22;13951;49.516;6.094;2023-02-21T19:53:13;6.50;99.90
26212;DHT22;13951;49.516;6.094;2023-02-21T19:55:46;6.40;99.90
26212;DHT22;13951;49.516;6.094;2023-02-21T19:58:19;6.30;99.90
26212;DHT22;13951;49.516;6.094;2023-02-21T20:00:52;6.30;99.90
26212;DHT22;13951;49.516;6.094;2023-02-21T20:03:25;6.20;99.90
26212;DHT22;13951;49.516;6.094;2023-02-21T20:05:58;6.20;99.90
26212;DHT22;13951;49.516;6.094;2023-02-21T20:08:32;6.10;99.90
26212;DHT22;13951;49.516;6.094;2023-02-21T20:11:05;6.10;99.90
26212;DHT22;13951;49.516;6.094;2023-02-21T20:13:38;6.00;99.90
26212;DHT22;13951;49.516;6.094;2023-02-21T20:16:11;6.00;99.90
26212;DHT22;13951;49.516;6.094;2023-02-21T20:18:49;6.00;99.90
26212;DHT22;13951;49.516;6.094;2023-02-21T20:21:26;6.00;99.90
26212;DHT22;13951;49.516;6.094;2023-02-21T20:24:01;6.00;99.90
26212;DHT22;13951;49.516;6.094;2023-02-21T20:26:38;5.90;99.90
26212;DHT22;13951;49.516;6.094;2023-02-21T20:29:11;5.90;99.90
26212;DHT22;13951;49.516;6.094;2023-02-21T20:31:44;5.80;99.90
26212;DHT22;13951;49.516;6.094;2023-02-21T20:34:17;5.80;99.90
26212;DHT22;13951;49.516;6.094;2023-02-21T20:36:50;5.80;99.90
26212;DHT22;13951;49.516;6.094;2023-02-21T20:39:28;5.70;99.90
26212;DHT22;13951;49.516;6.094;2023-02-21T20:42:03;5.70;99.90
26212;DHT22;13951;49.516;6.094;2023-02-21T20:44:38;5.60;99.90
26212;DHT22;13951;49.516;6.094;2023-02-21T20:47:11;5.60;99.90
26212;DHT22;13951;49.516;6.094;2023-02-21T20:49:46;5.60;99.90
26212;DHT22;13951;49.516;6.094;2023-02-21T20:52:19;5.50;99.90
26212;DHT22;13951;49.516;6.094;2023-02-21T20:54:52;5.40;99.90
26212;DHT22;13951;49.516;6.094;2023-02-21T20:57:24;5.30;99.90
26212;DHT22;13951;49.516;6.094;2023-02-21T20:59:57;5.30;99.90
26212;DHT22;13951;49.516;6.094;2023-02-21T21:02:30;5.20;99.90
26212;DHT22;13951;49.516;6.094;2023-02-21T21:05:02;5.20;99.90
